Time;durP1;ratioP1;P1;durP2;ratioP2;P2;SDS_P1;SDS_P2;PMS_P1;PMS_P2;Temp;Humidity;BMP_temperature;BMP_pressure;BME280_temperature;BME280_humidity;BME280_pressure;Samples;Min_cycle;Max_cycle;Signal;HPM_P1;HPM_P2
2021/10/21 00:01:01;;;;;;;22.37;18.27;;;13.10;99.90;;;;;;6238775;28;20483;-61
2021/10/21 00:04:05;;;;;;;21.53;18.60;;;13.10;99.90;;;;;;6249833;28;21085;-61
2021/10/21 00:07:09;;;;;;;22.60;17.93;;;13.20;99.90;;;;;;6250712;28;20466;-61
2021/10/21 00:10:13;;;;;;;19.67;17.70;;;13.30;99.90;;;;;;6245415;28;20497;-61
2021/10/21 00:13:17;;;;;;;19.97;17.33;;;13.40;99.90;;;;;;6252378;28;20475;-61
2021/10/21 00:16:20;;;;;;;19.87;17.77;;;13.40;99.90;;;;;;6250995;28;20486;-61
2021/10/21 00:19:24;;;;;;;20.83;17.43;;;13.50;99.90;;;;;;6249707;28;20966;-61
2021/10/21 00:22:27;;;;;;;21.17;19.00;;;13.60;99.90;;;;;;6250490;28;20471;-62
2021/10/21 00:25:31;;;;;;;24.37;20.23;;;13.60;99.90;;;;;;6250822;28;20485;-61
2021/10/21 00:28:37;;;;;;;21.63;19.50;;;13.60;99.90;;;;;;6251131;28;20479;-61
2021/10/21 00:31:40;;;;;;;20.60;18.23;;;13.60;99.90;;;;;;6248055;28;20493;-62
2021/10/21 00:34:43;;;;;;;23.83;18.90;;;13.60;99.90;;;;;;6253263;28;20482;-62
2021/10/21 00:37:46;;;;;;;20.80;18.53;;;13.60;99.90;;;;;;6252524;28;20993;-62
2021/10/21 00:40:51;;;;;;;20.90;18.70;;;13.60;99.90;;;;;;6252392;28;20541;-62
2021/10/21 00:44:05;;;;;;;20.90;18.73;;;13.60;99.90;;;;;;6252033;28;20854;-62
2021/10/21 00:47:09;;;;;;;19.10;17.17;;;13.60;99.90;;;;;;6252165;28;20960;-62
2021/10/21 00:50:12;;;;;;;20.80;17.10;;;13.70;99.90;;;;;;6252178;28;20474;-62
2021/10/21 00:53:17;;;;;;;19.60;16.57;;;13.70;99.90;;;;;;6252050;28;20478;-61
2021/10/21 00:56:22;;;;;;;19.13;17.23;;;13.80;99.90;;;;;;6252478;28;20981;-61
2021/10/21 00:59:26;;;;;;;18.53;16.53;;;13.80;99.90;;;;;;6251883;28;20479;-62
2021/10/21 01:02:29;;;;;;;20.30;18.20;;;13.90;99.90;;;;;;6251666;28;20467;-61
2021/10/21 01:05:32;;;;;;;17.57;15.77;;;13.80;99.90;;;;;;6251868;28;20478;-62
2021/10/21 01:08:36;;;;;;;17.23;14.80;;;13.80;99.90;;;;;;6251389;28;20482;-61
2021/10/21 01:11:42;;;;;;;19.47;17.30;;;13.90;99.90;;;;;;6251388;28;20483;-62
2021/10/21 01:14:45;;;;;;;17.90;15.20;;;13.90;99.90;;;;;;6251738;28;20470;-62
2021/10/21 01:17:50;;;;;;;17.00;15.20;;;13.80;99.90;;;;;;6251736;28;20965;-63
2021/10/21 01:20:54;;;;;;;18.93;16.37;;;13.80;99.90;;;;;;6251724;28;20479;-61
2021/10/21 01:23:57;;;;;;;19.20;17.27;;;13.80;99.90;;;;;;6251558;28;20981;-62
2021/10/21 01:27:00;;;;;;;21.63;17.67;;;13.80;99.90;;;;;;6251552;28;20478;-62
2021/10/21 01:30:05;;;;;;;17.70;14.70;;;13.70;99.90;;;;;;6251083;28;20501;-60
2021/10/21 01:33:08;;;;;;;15.70;14.10;;;13.70;99.90;;;;;;6251447;28;20479;-61
2021/10/21 01:36:14;;;;;;;16.80;15.10;;;13.70;99.90;;;;;;6241441;28;20497;-61
2021/10/21 01:39:17;;;;;;;15.97;14.23;;;13.70;99.90;;;;;;6251176;28;20553;-62
2021/10/21 01:42:20;;;;;;;18.27;15.90;;;13.80;99.90;;;;;;6250948;28;20489;-62
2021/10/21 01:45:25;;;;;;;15.60;13.90;;;13.80;99.80;;;;;;6251031;28;20553;-62
2021/10/21 01:48:28;;;;;;;17.60;14.77;;;13.80;99.90;;;;;;6251351;28;20483;-62
2021/10/21 01:51:35;;;;;;;17.07;15.27;;;13.80;99.90;;;;;;6250806;28;20482;-61
2021/10/21 01:54:38;;;;;;;15.63;13.40;;;13.70;99.80;;;;;;6250997;28;20424;-62
2021/10/21 01:57:42;;;;;;;19.80;13.30;;;13.70;99.90;;;;;;6250431;28;20439;-62
2021/10/21 02:00:45;;;;;;;13.30;12.00;;;13.80;99.90;;;;;;6251084;28;20463;-61
2021/10/21 02:03:48;;;;;;;18.97;14.20;;;13.70;99.70;;;;;;6250607;28;20593;-61
2021/10/21 02:06:53;;;;;;;15.07;13.47;;;13.70;99.70;;;;;;6251427;28;20458;-61
2021/10/21 02:09:56;;;;;;;13.90;12.40;;;13.60;99.80;;;;;;6250164;28;20775;-62
2021/10/21 02:12:59;;;;;;;15.93;13.73;;;13.60;99.90;;;;;;6250352;28;20467;-61
2021/10/21 02:16:02;;;;;;;16.43;13.77;;;13.60;99.90;;;;;;6251140;28;20482;-66
2021/10/21 02:19:05;;;;;;;13.87;12.43;;;13.60;99.90;;;;;;6250439;28;20558;-66
2021/10/21 02:22:10;;;;;;;16.50;14.70;;;13.60;99.80;;;;;;6251535;28;20467;-66
2021/10/21 02:25:13;;;;;;;16.23;14.23;;;13.60;99.90;;;;;;6250424;28;20466;-62
2021/10/21 02:28:17;;;;;;;16.63;13.93;;;13.60;99.90;;;;;;6250921;28;20872;-62
2021/10/21 02:31:20;;;;;;;17.20;14.77;;;13.70;99.90;;;;;;6250492;28;20803;-62
2021/10/21 02:34:23;;;;;;;14.83;13.30;;;13.70;99.90;;;;;;6250608;28;20485;-62
2021/10/21 02:37:27;;;;;;;14.63;13.17;;;13.70;99.90;;;;;;6246914;28;20467;-65
2021/10/21 02:40:31;;;;;;;17.50;14.97;;;13.70;99.90;;;;;;6251551;28;20475;-64
2021/10/21 02:43:35;;;;;;;15.40;13.40;;;13.60;99.90;;;;;;6258554;28;20471;-64
2021/10/21 02:46:38;;;;;;;16.03;13.30;;;13.60;99.90;;;;;;6258751;28;20467;-65
2021/10/21 02:49:41;;;;;;;13.93;12.53;;;13.60;99.90;;;;;;6257961;28;20474;-61
2021/10/21 02:52:46;;;;;;;13.20;12.00;;;13.60;99.90;;;;;;6258109;28;20981;-66
2021/10/21 02:55:49;;;;;;;12.67;11.37;;;13.70;99.90;;;;;;6258354;28;20474;-66
2021/10/21 02:58:53;;;;;;;15.83;14.13;;;13.60;99.90;;;;;;6258233;28;20982;-65
2021/10/21 03:01:56;;;;;;;14.00;12.37;;;13.50;99.90;;;;;;6258385;28;20860;-66
2021/10/21 03:04:59;;;;;;;13.90;12.27;;;13.60;99.90;;;;;;6258154;28;20474;-67
2021/10/21 03:08:04;;;;;;;16.50;13.97;;;13.50;99.90;;;;;;6258198;28;20486;-64
2021/10/21 03:11:07;;;;;;;13.70;11.70;;;13.50;99.90;;;;;;6257766;28;20482;-66
2021/10/21 03:14:10;;;;;;;13.70;12.10;;;13.50;99.90;;;;;;6257404;28;20470;-66
2021/10/21 03:17:14;;;;;;;14.27;12.80;;;13.40;99.90;;;;;;6258002;28;20485;-66
2021/10/21 03:20:17;;;;;;;16.07;14.47;;;13.30;99.90;;;;;;6258371;28;20487;-66
2021/10/21 03:23:24;;;;;;;13.83;12.33;;;13.20;99.90;;;;;;6258173;28;20485;-66
2021/10/21 03:26:28;;;;;;;12.93;11.63;;;13.10;99.90;;;;;;6258190;28;20470;-66
2021/10/21 03:29:31;;;;;;;13.23;11.73;;;13.10;99.90;;;;;;6257964;28;20934;-66
2021/10/21 03:32:34;;;;;;;14.50;12.10;;;13.10;99.90;;;;;;6258212;28;20927;-66
2021/10/21 03:35:37;;;;;;;13.27;11.87;;;13.00;99.90;;;;;;6258091;28;20868;-65
2021/10/21 03:38:42;;;;;;;13.70;12.30;;;13.00;99.90;;;;;;6257733;28;20998;-65
2021/10/21 03:41:46;;;;;;;12.97;11.67;;;13.00;99.90;;;;;;6257746;28;20553;-66
2021/10/21 03:44:50;;;;;;;13.27;11.87;;;12.90;99.90;;;;;;6257574;28;20477;-66
2021/10/21 03:47:53;;;;;;;14.07;12.27;;;12.90;99.90;;;;;;6257782;28;20478;-67
2021/10/21 03:50:56;;;;;;;12.70;11.23;;;12.90;99.90;;;;;;6257645;28;20485;-62
2021/10/21 03:54:01;;;;;;;13.73;12.33;;;12.90;99.90;;;;;;6253133;28;20487;-63
2021/10/21 03:57:04;;;;;;;13.00;11.80;;;12.90;99.90;;;;;;6253590;28;20487;-62
2021/10/21 04:00:08;;;;;;;13.23;11.57;;;12.80;99.90;;;;;;6253333;28;20477;-63
2021/10/21 04:03:12;;;;;;;13.30;12.00;;;12.70;99.90;;;;;;6253393;28;20477;-67
2021/10/21 04:06:15;;;;;;;10.77;9.67;;;12.70;99.90;;;;;;6253316;28;20475;-62
2021/10/21 04:09:20;;;;;;;12.77;10.80;;;12.70;99.90;;;;;;6253333;28;20498;-66
2021/10/21 04:12:23;;;;;;;12.27;11.07;;;12.60;99.90;;;;;;6253647;28;20483;-62
2021/10/21 04:15:26;;;;;;;13.00;11.20;;;12.70;99.90;;;;;;6253376;28;20570;-62
2021/10/21 04:18:29;;;;;;;14.20;10.60;;;12.70;99.90;;;;;;6253336;28;20479;-64
2021/10/21 04:21:33;;;;;;;12.97;10.50;;;12.80;99.90;;;;;;6253073;28;20545;-65
2021/10/21 04:24:37;;;;;;;11.40;10.20;;;12.80;99.90;;;;;;6253006;28;20463;-66
2021/10/21 04:27:43;;;;;;;9.87;8.87;;;12.80;99.90;;;;;;6252939;28;20458;-66
2021/10/21 04:30:46;;;;;;;13.10;11.07;;;12.80;99.90;;;;;;6252897;28;20459;-65
2021/10/21 04:33:49;;;;;;;12.30;11.10;;;12.80;99.90;;;;;;6253112;28;20967;-66
2021/10/21 04:36:52;;;;;;;12.33;10.33;;;12.80;99.90;;;;;;6252723;28;20452;-62
2021/10/21 04:39:57;;;;;;;11.20;10.00;;;12.70;99.90;;;;;;6252675;28;20838;-67
2021/10/21 04:43:00;;;;;;;12.70;11.40;;;12.80;99.90;;;;;;6252478;28;20475;-61
2021/10/21 04:46:03;;;;;;;11.77;10.57;;;12.80;99.90;;;;;;6253043;28;20467;-66
2021/10/21 04:49:06;;;;;;;10.80;9.70;;;12.80;99.90;;;;;;6252387;28;20471;-67
2021/10/21 04:52:10;;;;;;;16.00;12.37;;;12.90;99.90;;;;;;6252745;28;20473;-62
2021/10/21 04:55:14;;;;;;;24.20;20.20;;;12.90;99.90;;;;;;6252080;28;20958;-63
2021/10/21 04:58:17;;;;;;;12.60;11.30;;;12.90;99.90;;;;;;6252468;28;20466;-62
2021/10/21 05:01:20;;;;;;;12.90;11.13;;;12.90;99.90;;;;;;6252187;28;20467;-62
2021/10/21 05:04:24;;;;;;;15.70;11.20;;;12.90;99.90;;;;;;6252121;28;20470;-66
2021/10/21 05:07:27;;;;;;;12.10;10.53;;;12.90;99.90;;;;;;6252364;28;20467;-61
2021/10/21 05:10:32;;;;;;;18.23;10.13;;;12.80;99.90;;;;;;6251800;28;20474;-62
2021/10/21 05:13:35;;;;;;;11.80;10.70;;;12.80;99.90;;;;;;6251698;28;20494;-62
2021/10/21 05:16:38;;;;;;;12.63;10.40;;;12.80;99.90;;;;;;6252059;28;20470;-62
2021/10/21 05:19:41;;;;;;;12.63;10.63;;;12.80;99.90;;;;;;6251708;28;20533;-64
2021/10/21 05:22:44;;;;;;;13.70;11.47;;;12.70;99.90;;;;;;6251460;28;20800;-65
2021/10/21 05:25:49;;;;;;;11.80;10.50;;;12.80;99.90;;;;;;6251929;28;20479;-61
2021/10/21 05:28:52;;;;;;;10.40;9.23;;;12.80;99.90;;;;;;6251127;28;20475;-66
2021/10/21 05:31:56;;;;;;;13.60;10.97;;;12.80;99.90;;;;;;6252369;28;20481;-67
2021/10/21 05:34:59;;;;;;;14.83;12.60;;;12.80;99.90;;;;;;6251122;28;20967;-68
2021/10/21 05:38:03;;;;;;;16.20;10.87;;;12.90;99.90;;;;;;6252653;28;20482;-63
2021/10/21 05:41:07;;;;;;;12.80;11.47;;;12.90;99.90;;;;;;6252158;28;20475;-65
2021/10/21 05:44:11;;;;;;;13.53;12.13;;;12.90;99.90;;;;;;6251403;28;20475;-63
2021/10/21 05:47:14;;;;;;;15.17;13.10;;;12.90;99.90;;;;;;6251355;28;20490;-62
2021/10/21 05:50:17;;;;;;;12.20;11.07;;;12.90;99.90;;;;;;6242268;28;20486;-67
2021/10/21 05:53:20;;;;;;;14.60;11.20;;;13.00;99.90;;;;;;6250978;28;20487;-66
2021/10/21 05:56:25;;;;;;;8.40;7.60;;;13.00;99.90;;;;;;6250885;28;20466;-61
2021/10/21 05:59:28;;;;;;;11.00;8.27;;;13.20;99.90;;;;;;6250659;28;20471;-61
2021/10/21 06:02:31;;;;;;;8.77;7.87;;;13.40;99.90;;;;;;6250845;28;20470;-65
2021/10/21 06:05:34;;;;;;;10.33;8.30;;;13.50;99.90;;;;;;6251398;28;20479;-66
2021/10/21 06:08:38;;;;;;;14.47;11.57;;;13.60;99.90;;;;;;6250825;28;20942;-64
2021/10/21 06:11:42;;;;;;;11.13;8.30;;;13.60;99.90;;;;;;6250985;28;20481;-65
2021/10/21 06:14:45;;;;;;;12.67;9.23;;;13.70;99.90;;;;;;6250712;28;21062;-65
2021/10/21 06:17:49;;;;;;;10.33;8.40;;;13.80;99.90;;;;;;6250334;28;20470;-65
2021/10/21 06:20:52;;;;;;;14.50;10.30;;;13.90;99.90;;;;;;6250614;28;20509;-62
2021/10/21 06:23:56;;;;;;;13.73;9.23;;;14.10;99.80;;;;;;6250787;28;20490;-65
2021/10/21 06:27:00;;;;;;;9.17;5.57;;;14.30;99.20;;;;;;6250483;28;20471;-65
2021/10/21 06:30:05;;;;;;;7.83;5.50;;;14.50;98.00;;;;;;6250230;28;20950;-67
2021/10/21 06:33:09;;;;;;;5.20;4.70;;;14.90;96.90;;;;;;6249950;28;20974;-65
2021/10/21 06:36:13;;;;;;;4.40;3.93;;;15.30;94.80;;;;;;6250649;28;20482;-65
2021/10/21 06:39:16;;;;;;;4.10;3.63;;;16.00;93.10;;;;;;6250828;28;20954;-64
2021/10/21 06:42:21;;;;;;;6.20;3.13;;;16.30;92.40;;;;;;6250673;28;20803;-61
2021/10/21 06:45:24;;;;;;;4.17;3.40;;;16.50;92.00;;;;;;6250465;28;20919;-62
2021/10/21 06:48:27;;;;;;;6.47;4.10;;;16.70;90.90;;;;;;6250326;28;20487;-65
2021/10/21 06:51:31;;;;;;;5.00;3.47;;;17.00;89.90;;;;;;6250856;28;20470;-65
2021/10/21 06:54:34;;;;;;;7.00;4.23;;;17.20;89.90;;;;;;6245961;28;20479;-65
2021/10/21 06:57:48;;;;;;;5.70;4.80;;;17.30;88.30;;;;;;6249966;28;20554;-65
2021/10/21 07:00:51;;;;;;;5.17;4.00;;;17.40;87.60;;;;;;6250752;28;20546;-65
2021/10/21 07:03:55;;;;;;;5.83;4.23;;;17.50;86.10;;;;;;6250363;28;20454;-64
2021/10/21 07:06:59;;;;;;;13.33;5.27;;;17.60;85.60;;;;;;6250892;28;20462;-65
2021/10/21 07:10:05;;;;;;;6.67;5.70;;;17.60;85.20;;;;;;6250662;28;20482;-65
2021/10/21 07:13:10;;;;;;;6.17;4.90;;;17.60;85.00;;;;;;6250753;28;20470;-65
2021/10/21 07:16:33;;;;;;;8.13;5.07;;;17.70;85.00;;;;;;6249870;28;20509;-66
2021/10/21 07:19:36;;;;;;;12.17;6.60;;;17.70;85.20;;;;;;6249710;28;20562;-66
2021/10/21 07:22:40;;;;;;;5.87;4.00;;;17.70;84.80;;;;;;6249460;28;20806;-66
2021/10/21 07:25:43;;;;;;;4.50;3.77;;;17.70;84.10;;;;;;6249636;28;20224;-66
2021/10/21 07:28:48;;;;;;;5.53;5.00;;;17.70;83.40;;;;;;6252647;28;20950;-65
2021/10/21 07:31:51;;;;;;;10.07;4.50;;;17.70;83.60;;;;;;6254461;28;20474;-67
2021/10/21 07:34:54;;;;;;;4.00;3.20;;;17.70;83.80;;;;;;6253928;28;20676;-67
2021/10/21 07:37:57;;;;;;;10.63;5.80;;;17.80;83.90;;;;;;6254165;28;20986;-66
2021/10/21 07:41:01;;;;;;;4.07;3.67;;;17.90;83.50;;;;;;6254756;28;20467;-65
2021/10/21 07:44:05;;;;;;;5.60;5.10;;;17.90;81.80;;;;;;6254156;28;20240;-65
2021/10/21 07:47:09;;;;;;;5.00;4.30;;;18.00;81.70;;;;;;6254472;28;20479;-64
2021/10/21 07:50:14;;;;;;;4.23;3.83;;;18.20;81.50;;;;;;6254074;28;20301;-64
2021/10/21 07:53:17;;;;;;;5.13;4.73;;;18.30;80.20;;;;;;6253894;28;20813;-64
2021/10/21 07:56:20;;;;;;;8.30;4.40;;;18.40;78.50;;;;;;6253772;28;20245;-64
2021/10/21 07:59:26;;;;;;;14.30;4.70;;;18.50;79.60;;;;;;6253843;28;20235;-64
2021/10/21 08:02:29;;;;;;;4.80;3.33;;;18.60;80.50;;;;;;6253712;28;20232;-65
2021/10/21 08:05:32;;;;;;;4.27;3.23;;;18.60;80.40;;;;;;6253497;28;20337;-65
2021/10/21 08:08:36;;;;;;;4.47;3.20;;;18.70;80.20;;;;;;6250421;28;20702;-64
2021/10/21 08:11:39;;;;;;;6.80;2.90;;;18.90;79.10;;;;;;6236649;28;20220;-64
2021/10/21 08:14:44;;;;;;;5.20;3.30;;;19.10;78.50;;;;;;6235529;28;20235;-64
2021/10/21 08:17:49;;;;;;;3.23;3.00;;;19.30;77.40;;;;;;6254163;28;20232;-65
2021/10/21 08:20:52;;;;;;;3.73;3.43;;;19.70;75.90;;;;;;6232818;28;20244;-65
2021/10/21 08:23:55;;;;;;;3.10;2.90;;;20.80;75.20;;;;;;6228494;28;20233;-62
2021/10/21 08:26:59;;;;;;;3.10;2.90;;;22.60;68.80;;;;;;6228583;28;20236;-62
2021/10/21 08:30:04;;;;;;;3.53;3.23;;;23.90;61.30;;;;;;6252564;28;20568;-62
2021/10/21 08:33:08;;;;;;;4.60;3.13;;;26.20;55.20;;;;;;6252705;28;20967;-62
2021/10/21 08:36:14;;;;;;;3.70;3.40;;;29.30;48.30;;;;;;6252559;28;20227;-65
2021/10/21 08:39:17;;;;;;;3.40;3.10;;;32.00;41.00;;;;;;6252913;28;20231;-65
2021/10/21 08:42:20;;;;;;;3.53;3.05;;;34.10;36.60;;;;;;6254617;28;20238;-64
2021/10/21 08:45:29;;;;;;;5.43;3.25;;;35.20;31.40;;;;;;6242291;28;20224;-64
2021/10/21 08:48:35;;;;;;;3.15;2.50;;;36.20;30.10;;;;;;6229301;28;20711;-64
2021/10/21 08:51:39;;;;;;;5.70;3.00;;;37.20;28.70;;;;;;6232177;28;20632;-65
2021/10/21 08:54:43;;;;;;;5.65;3.05;;;37.70;28.00;;;;;;6230255;28;20208;-65
2021/10/21 08:57:46;;;;;;;6.00;3.22;;;38.10;26.50;;;;;;6228419;28;20544;-65
2021/10/21 09:00:57;;;;;;;3.55;3.13;;;37.60;26.60;;;;;;6221427;28;20239;-66
2021/10/21 09:04:16;;;;;;;10.05;5.25;;;37.10;26.80;;;;;;6232047;28;20239;-64
2021/10/21 09:10:46;;;;;;;3.88;3.58;;;37.40;26.50;;;;;;6234176;28;20224;-65
2021/10/21 09:14:07;;;;;;;4.18;3.78;;;37.00;26.50;;;;;;6249320;28;20235;-66
2021/10/21 09:17:14;;;;;;;4.50;3.90;;;36.20;26.80;;;;;;6250754;28;20235;-64
2021/10/21 09:20:26;;;;;;;4.00;3.67;;;35.70;26.90;;;;;;6249658;28;20247;-65
2021/10/21 09:23:29;;;;;;;7.63;4.47;;;36.40;26.50;;;;;;6248364;28;20575;-67
2021/10/21 09:26:33;;;;;;;4.07;3.67;;;37.30;25.60;;;;;;6248011;28;20647;-65
2021/10/21 09:29:39;;;;;;;4.78;3.72;;;37.50;25.20;;;;;;6248043;28;20232;-65
2021/10/21 09:32:43;;;;;;;3.53;2.97;;;38.10;25.10;;;;;;6249532;28;20299;-63
2021/10/21 09:35:58;;;;;;;3.50;3.20;;;39.30;24.20;;;;;;6247387;28;20667;-63
2021/10/21 09:39:01;;;;;;;3.65;3.38;;;40.50;23.10;;;;;;6248233;28;20244;-64
2021/10/21 09:42:08;;;;;;;3.10;2.90;;;40.90;22.50;;;;;;6249245;28;20776;-64
2021/10/21 09:45:13;;;;;;;3.47;3.17;;;40.10;22.70;;;;;;6246353;28;20231;-66
2021/10/21 09:48:22;;;;;;;3.63;3.30;;;40.60;22.60;;;;;;6247810;28;20236;-64
2021/10/21 09:51:35;;;;;;;2.72;2.53;;;40.60;22.00;;;;;;6246847;28;20239;-64
2021/10/21 09:54:40;;;;;;;3.22;2.92;;;39.50;22.70;;;;;;6248756;28;20675;-65
2021/10/21 09:58:02;;;;;;;2.70;2.25;;;39.30;23.00;;;;;;6250143;28;20239;-64
2021/10/21 10:01:06;;;;;;;2.88;2.67;;;38.40;23.30;;;;;;6255309;28;20238;-64
2021/10/21 10:04:14;;;;;;;2.55;2.35;;;37.70;23.90;;;;;;6252171;28;20258;-63
2021/10/21 10:07:18;;;;;;;2.53;2.33;;;38.60;23.70;;;;;;6259833;28;20242;-64
2021/10/21 10:10:22;;;;;;;2.15;1.95;;;39.80;23.10;;;;;;6257556;28;20235;-64
2021/10/21 10:13:27;;;;;;;2.22;2.13;;;41.10;22.10;;;;;;6254878;28;20705;-64
2021/10/21 10:16:33;;;;;;;5.00;2.47;;;41.50;21.40;;;;;;6250171;28;20242;-64
2021/10/21 10:19:43;;;;;;;2.85;2.22;;;42.30;21.30;;;;;;6248361;28;20249;-64
2021/10/21 10:22:48;;;;;;;2.60;2.25;;;42.30;20.50;;;;;;6248874;28;20257;-64
2021/10/21 10:25:53;;;;;;;2.03;1.80;;;42.50;20.90;;;;;;6250270;28;20233;-64
2021/10/21 10:28:56;;;;;;;2.40;2.20;;;41.80;21.10;;;;;;6248681;28;20230;-64
2021/10/21 10:32:00;;;;;;;2.45;2.25;;;41.30;21.30;;;;;;6247861;28;20691;-64
2021/10/21 10:35:07;;;;;;;1.83;1.73;;;42.80;20.80;;;;;;6249572;28;20351;-64
2021/10/21 10:38:36;;;;;;;2.20;2.00;;;42.90;20.30;;;;;;6246465;28;20739;-63
2021/10/21 10:41:54;;;;;;;2.13;1.55;;;43.30;19.60;;;;;;6247368;28;20244;-63
2021/10/21 10:45:06;;;;;;;4.07;1.95;;;40.60;21.20;;;;;;6246440;28;20696;-63
2021/10/21 10:48:11;;;;;;;3.17;1.77;;;41.50;21.10;;;;;;6247154;28;20240;-64
2021/10/21 10:51:15;;;;;;;1.70;1.60;;;42.70;20.10;;;;;;6248573;28;20560;-64
2021/10/21 10:55:03;;;;;;;2.08;1.73;;;40.30;21.00;;;;;;6246620;28;20640;-63
2021/10/21 10:58:06;;;;;;;2.10;1.50;;;36.40;23.60;;;;;;6247799;28;20240;-64
2021/10/21 11:01:28;;;;;;;1.40;1.25;;;33.90;25.90;;;;;;6248210;28;20579;-63
2021/10/21 11:04:57;;;;;;;2.05;1.30;;;31.80;27.90;;;;;;6252265;28;20242;-63
2021/10/21 11:08:04;;;;;;;1.47;1.37;;;29.40;30.60;;;;;;6251681;28;20231;-63
2021/10/21 11:11:07;;;;;;;2.53;1.50;;;27.30;34.80;;;;;;6243811;28;20231;-63
2021/10/21 11:14:12;;;;;;;1.60;1.50;;;26.30;36.00;;;;;;6253053;28;20553;-63
2021/10/21 11:17:35;;;;;;;1.63;1.53;;;25.50;37.60;;;;;;6253048;28;20228;-63
2021/10/21 11:20:41;;;;;;;1.57;1.47;;;24.70;39.20;;;;;;6251190;28;20267;-63
2021/10/21 11:23:48;;;;;;;1.27;1.10;;;24.40;40.00;;;;;;6252473;28;20236;-63
2021/10/21 11:26:52;;;;;;;2.90;1.57;;;24.20;40.80;;;;;;6252060;28;20220;-64
2021/10/21 11:30:01;;;;;;;3.13;1.40;;;26.90;38.20;;;;;;6252627;28;20254;-65
2021/10/21 11:33:06;;;;;;;1.25;1.05;;;30.20;32.90;;;;;;6252033;28;20246;-64
2021/10/21 11:36:10;;;;;;;2.00;1.20;;;33.70;29.10;;;;;;6252196;28;20246;-64
2021/10/21 11:39:14;;;;;;;0.90;0.70;;;36.50;26.50;;;;;;6252177;28;20231;-64
2021/10/21 11:42:17;;;;;;;1.90;0.90;;;37.90;24.80;;;;;;6250840;28;20243;-63
2021/10/21 11:45:25;;;;;;;1.20;1.10;;;38.70;23.60;;;;;;6252064;28;20242;-65
2021/10/21 11:48:32;;;;;;;2.15;1.08;;;40.00;22.80;;;;;;6251101;28;20238;-64
2021/10/21 11:51:35;;;;;;;1.95;0.98;;;41.40;21.50;;;;;;6250629;28;20240;-64
2021/10/21 11:54:40;;;;;;;3.45;1.30;;;42.80;20.70;;;;;;6250525;28;20325;-63
2021/10/21 11:57:44;;;;;;;2.10;0.85;;;42.90;20.10;;;;;;6251992;28;20649;-62
2021/10/21 12:00:50;;;;;;;5.40;1.42;;;40.30;21.60;;;;;;6251441;28;20228;-63
2021/10/21 12:03:54;;;;;;;3.25;0.82;;;39.10;22.00;;;;;;6252068;28;20200;-62
2021/10/21 12:06:57;;;;;;;3.42;1.25;;;35.10;24.60;;;;;;6251965;28;20204;-64
2021/10/21 12:10:02;;;;;;;3.47;0.90;;;32.00;28.00;;;;;;6251315;28;20247;-63
2021/10/21 12:13:06;;;;;;;3.13;0.93;;;31.40;28.50;;;;;;6249583;28;20242;-63
2021/10/21 12:16:17;;;;;;;1.85;1.00;;;29.50;30.50;;;;;;6251020;28;20227;-64
2021/10/21 12:19:40;;;;;;;1.33;0.73;;;28.60;32.20;;;;;;6250495;28;20566;-64
2021/10/21 12:22:53;;;;;;;1.13;0.77;;;27.50;33.80;;;;;;6251349;28;20231;-63
2021/10/21 12:25:59;;;;;;;1.40;0.90;;;26.20;36.00;;;;;;6250228;28;20238;-63
2021/10/21 12:29:05;;;;;;;3.40;1.13;;;24.80;38.50;;;;;;6251240;28;20244;-62
2021/10/21 12:32:09;;;;;;;2.90;1.07;;;24.10;39.80;;;;;;6251344;28;20232;-62
2021/10/21 12:35:12;;;;;;;1.37;0.80;;;23.70;40.70;;;;;;6251037;28;20232;-62
2021/10/21 12:38:19;;;;;;;1.53;0.70;;;23.20;41.30;;;;;;6250665;28;20240;-64
2021/10/21 12:41:24;;;;;;;1.60;0.70;;;22.90;42.30;;;;;;6251185;28;20248;-64
2021/10/21 12:44:28;;;;;;;0.80;0.50;;;22.60;43.00;;;;;;6250603;28;20251;-62
2021/10/21 12:47:33;;;;;;;2.60;0.90;;;22.40;43.50;;;;;;6249623;28;20236;-62
2021/10/21 12:50:36;;;;;;;0.87;0.77;;;22.10;44.10;;;;;;6249231;28;20321;-63
2021/10/21 12:53:41;;;;;;;0.80;0.80;;;22.00;44.50;;;;;;6248931;28;20228;-62
2021/10/21 12:56:58;;;;;;;2.17;0.80;;;21.90;44.90;;;;;;6250043;28;20760;-63
2021/10/21 13:00:01;;;;;;;2.30;0.73;;;21.90;45.30;;;;;;6249316;28;20236;-63
2021/10/21 13:03:06;;;;;;;1.93;1.07;;;21.80;45.40;;;;;;6250407;28;20247;-63
2021/10/21 13:06:10;;;;;;;16.30;9.03;;;21.90;45.70;;;;;;6249885;28;20224;-63
2021/10/21 13:09:13;;;;;;;11.63;6.87;;;22.00;46.00;;;;;;6249742;28;20687;-64
2021/10/21 13:12:18;;;;;;;1.17;0.90;;;22.00;46.00;;;;;;6249902;28;20235;-63
2021/10/21 13:15:26;;;;;;;1.50;1.00;;;22.10;45.80;;;;;;6248517;28;20260;-61
2021/10/21 13:18:30;;;;;;;0.90;0.70;;;21.90;46.30;;;;;;6242418;28;20231;-62
2021/10/21 13:21:33;;;;;;;1.37;0.73;;;21.90;46.30;;;;;;6249361;28;20232;-61
2021/10/21 13:24:37;;;;;;;1.97;1.10;;;21.80;46.50;;;;;;6249816;28;20284;-63
2021/10/21 13:27:42;;;;;;;1.37;0.93;;;21.90;46.50;;;;;;6249239;28;20227;-63
2021/10/21 13:30:45;;;;;;;1.83;1.00;;;21.90;46.60;;;;;;6248938;28;20664;-62
2021/10/21 13:33:49;;;;;;;5.27;1.77;;;21.90;47.00;;;;;;6249596;28;20218;-62
2021/10/21 13:36:52;;;;;;;1.70;1.00;;;21.90;47.00;;;;;;6248307;28;20235;-62
2021/10/21 13:39:55;;;;;;;3.30;0.77;;;21.90;47.30;;;;;;6250818;28;20246;-62
2021/10/21 13:43:00;;;;;;;1.50;0.83;;;21.80;47.30;;;;;;6250664;28;20208;-62
2021/10/21 13:46:03;;;;;;;1.40;0.93;;;21.90;47.50;;;;;;6250242;28;20239;-63
2021/10/21 13:49:06;;;;;;;0.90;0.70;;;21.90;47.40;;;;;;6249521;28;20244;-63
2021/10/21 13:52:10;;;;;;;0.90;0.67;;;21.90;47.20;;;;;;6250397;28;20786;-64
2021/10/21 13:55:14;;;;;;;3.90;0.80;;;21.80;47.60;;;;;;6249079;28;20240;-63
2021/10/21 13:58:18;;;;;;;1.17;0.80;;;21.80;48.20;;;;;;6246203;28;20243;-64
2021/10/21 14:01:24;;;;;;;0.90;0.70;;;21.60;48.50;;;;;;6247200;28;20232;-63
2021/10/21 14:04:27;;;;;;;1.63;1.00;;;21.40;48.80;;;;;;6245504;28;20243;-63
2021/10/21 14:07:30;;;;;;;2.10;1.00;;;21.40;49.10;;;;;;6249166;28;20224;-63
2021/10/21 14:10:34;;;;;;;2.20;1.10;;;21.30;49.50;;;;;;6248307;28;20727;-62
2021/10/21 14:13:39;;;;;;;2.40;1.20;;;21.30;50.00;;;;;;6248218;28;20725;-62
2021/10/21 14:16:42;;;;;;;1.20;0.90;;;21.30;49.80;;;;;;6248750;28;20232;-66
2021/10/21 14:19:45;;;;;;;1.33;1.10;;;21.40;49.90;;;;;;6248151;28;20232;-65
2021/10/21 14:22:53;;;;;;;1.70;1.13;;;21.30;50.50;;;;;;6247320;28;20576;-65
2021/10/21 14:25:56;;;;;;;1.27;1.00;;;21.20;50.80;;;;;;6247383;28;20317;-66
2021/10/21 14:29:03;;;;;;;4.77;1.60;;;21.10;50.80;;;;;;6246614;28;20269;-64
2021/10/21 14:32:06;;;;;;;3.03;1.90;;;21.10;51.70;;;;;;6247545;28;20232;-64
2021/10/21 14:35:13;;;;;;;2.50;1.10;;;21.00;52.00;;;;;;6250247;28;20742;-65
2021/10/21 14:38:16;;;;;;;2.27;1.27;;;21.00;51.80;;;;;;6250716;28;20232;-65
2021/10/21 14:41:19;;;;;;;3.23;1.80;;;20.90;52.60;;;;;;6248568;28;20259;-65
2021/10/21 14:44:24;;;;;;;1.07;0.87;;;20.70;52.20;;;;;;6249075;28;20282;-66
2021/10/21 14:47:28;;;;;;;2.20;1.50;;;20.70;51.90;;;;;;6248823;28;20244;-64
2021/10/21 14:50:31;;;;;;;4.20;0.90;;;20.70;52.30;;;;;;6246476;28;20690;-64
2021/10/21 14:53:34;;;;;;;1.20;0.87;;;20.70;52.20;;;;;;6247032;28;20228;-65
2021/10/21 14:56:38;;;;;;;1.57;1.30;;;20.80;52.00;;;;;;6247937;28;20251;-65
2021/10/21 14:59:43;;;;;;;3.60;2.80;;;20.80;52.10;;;;;;6248785;28;20232;-64
2021/10/21 15:02:47;;;;;;;3.63;3.27;;;20.80;52.10;;;;;;6248041;28;20220;-65
2021/10/21 15:05:55;;;;;;;3.67;3.37;;;20.60;51.60;;;;;;6249050;28;20235;-65
2021/10/21 15:09:18;;;;;;;3.30;2.90;;;20.50;51.30;;;;;;6246635;28;20228;-65
2021/10/21 15:12:48;;;;;;;6.57;5.37;;;20.40;51.20;;;;;;6248819;28;20246;-64
2021/10/21 15:22:40;;;;;;;4.00;2.60;;;19.80;50.80;;;;;;6248852;28;20239;-66
2021/10/21 15:25:45;;;;;;;1.83;1.73;;;19.60;50.70;;;;;;6237968;28;20228;-64
2021/10/21 15:28:48;;;;;;;1.90;1.60;;;19.50;50.90;;;;;;6245126;28;20319;-63
2021/10/21 15:31:53;;;;;;;3.73;1.57;;;19.30;50.70;;;;;;6249445;28;20225;-64
2021/10/21 15:34:56;;;;;;;2.23;1.73;;;19.20;51.70;;;;;;6250535;28;20327;-64
2021/10/21 15:38:01;;;;;;;2.93;2.00;;;19.20;51.10;;;;;;6248893;28;20561;-65
2021/10/21 15:41:05;;;;;;;1.77;1.67;;;19.20;51.40;;;;;;6248344;28;20228;-65
2021/10/21 15:44:30;;;;;;;1.93;1.50;;;19.20;51.70;;;;;;6247541;28;20251;-66
2021/10/21 15:47:37;;;;;;;1.50;1.40;;;19.10;51.30;;;;;;6247917;28;20224;-66
2021/10/21 15:50:53;;;;;;;1.90;1.60;;;19.20;51.30;;;;;;6249861;28;20699;-66
2021/10/21 16:14:19;;;;;;;1.00;0.90;;;18.60;50.60;;;;;;6228191;28;20244;-65
2021/10/21 16:17:52;;;;;;;1.70;1.37;;;18.60;50.60;;;;;;6238952;28;20322;-65
2021/10/21 16:21:13;;;;;;;1.20;1.10;;;18.60;50.80;;;;;;6237122;28;20292;-66
2021/10/21 16:24:17;;;;;;;2.40;1.27;;;18.60;50.90;;;;;;6234705;28;20244;-65